Time;durP1;ratioP1;P1;durP2;ratioP2;P2;SDS_P1;SDS_P2;PMS_P1;PMS_P2;Temp;Humidity;BMP_temperature;BMP_pressure;BME280_temperature;BME280_humidity;BME280_pressure;Samples;Min_cycle;Max_cycle;Signal;HPM_P1;HPM_P2
2022/03/24 00:01:51;;;;;;;72.08;30.92;;;;;;;-2.36;47.78;100805.00;1766219;79;21365;-78
2022/03/24 00:04:58;;;;;;;71.28;31.27;;;;;;;-2.38;47.77;100800.70;1793149;79;21265;-78
2022/03/24 00:08:06;;;;;;;80.72;33.18;;;;;;;-2.42;47.80;100793.28;1795570;79;21205;-78
2022/03/24 00:11:11;;;;;;;79.75;34.90;;;;;;;-2.44;47.96;100784.95;1795811;79;21529;-78
2022/03/24 00:14:17;;;;;;;76.67;34.73;;;;;;;-2.47;48.04;100788.65;1794143;79;21200;-78
2022/03/24 00:17:23;;;;;;;69.47;34.50;;;;;;;-2.48;48.14;100784.25;1784293;79;21254;-78
2022/03/24 00:20:29;;;;;;;75.45;36.08;;;;;;;-2.49;48.38;100780.29;1781257;80;21233;-78
2022/03/24 00:23:37;;;;;;;80.10;35.10;;;;;;;-2.50;48.42;100779.91;1782275;79;21262;-77
2022/03/24 00:26:42;;;;;;;74.62;36.05;;;;;;;-2.53;48.57;100773.39;1740334;81;21241;-78
2022/03/24 00:29:53;;;;;;;71.45;35.78;;;;;;;-2.55;48.65;100770.77;1767926;80;21263;-78
2022/03/24 00:32:59;;;;;;;67.22;29.25;;;;;;;-2.56;48.82;100773.06;1782004;80;21243;-77
2022/03/24 00:36:04;;;;;;;81.40;35.13;;;;;;;-2.58;48.90;100768.28;1777934;80;21214;-77
2022/03/24 00:39:13;;;;;;;88.03;35.75;;;;;;;-2.60;49.06;100756.28;1784825;79;21193;-77
2022/03/24 00:42:21;;;;;;;72.90;34.60;;;;;;;-2.62;49.22;100753.31;1782685;80;21213;-78
2022/03/24 00:45:27;;;;;;;77.87;33.73;;;;;;;-2.65;49.45;100751.66;1781930;80;21217;-78
2022/03/24 00:48:35;;;;;;;75.28;34.73;;;;;;;-2.67;49.63;100742.84;1786813;79;21251;-78
2022/03/24 00:51:41;;;;;;;71.85;34.60;;;;;;;-2.68;49.65;100742.91;1787338;79;21193;-77
2022/03/24 00:54:46;;;;;;;77.22;32.83;;;;;;;-2.68;49.73;100748.27;1775383;79;21766;-78
2022/03/24 00:57:58;;;;;;;73.90;32.80;;;;;;;-2.68;49.79;100746.48;1780888;79;21216;-78
2022/03/24 01:01:04;;;;;;;60.73;28.57;;;;;;;-2.69;49.88;100734.01;1782395;79;21246;-78
2022/03/24 01:04:10;;;;;;;65.85;30.68;;;;;;;-2.67;49.92;100735.30;1786007;79;21782;-77
2022/03/24 01:07:16;;;;;;;64.95;30.80;;;;;;;-2.66;49.91;100727.64;1782160;80;21230;-79
2022/03/24 01:10:25;;;;;;;61.50;29.82;;;;;;;-2.65;49.88;100723.53;1783971;80;21246;-78
2022/03/24 01:13:32;;;;;;;59.75;29.32;;;;;;;-2.63;49.90;100724.81;1781827;80;21254;-78
2022/03/24 01:16:39;;;;;;;67.95;32.55;;;;;;;-2.62;49.93;100728.73;1781878;79;21171;-79
2022/03/24 01:19:46;;;;;;;79.75;33.85;;;;;;;-2.60;50.08;100724.14;1781516;80;21203;-78
2022/03/24 01:22:53;;;;;;;60.30;29.05;;;;;;;-2.58;50.19;100722.27;1775629;80;21719;-78
2022/03/24 01:26:00;;;;;;;57.83;29.70;;;;;;;-2.57;50.28;100715.95;1775581;80;21774;-79
2022/03/24 01:29:08;;;;;;;55.25;26.50;;;;;;;-2.57;50.33;100711.94;1776046;80;21213;-78
2022/03/24 01:32:15;;;;;;;52.38;24.50;;;;;;;-2.55;50.46;100705.15;1775619;79;21213;-79
2022/03/24 01:35:23;;;;;;;57.65;27.77;;;;;;;-2.55;50.49;100697.11;1786850;80;21260;-79
2022/03/24 01:38:28;;;;;;;52.23;24.37;;;;;;;-2.53;50.53;100698.39;1789962;80;21209;-79
2022/03/24 01:41:38;;;;;;;49.13;24.55;;;;;;;-2.53;50.59;100695.72;1782025;79;21755;-79
2022/03/24 01:44:46;;;;;;;46.90;24.25;;;;;;;-2.54;50.51;100692.17;1788655;79;21180;-79
2022/03/24 01:47:52;;;;;;;59.67;28.55;;;;;;;-2.55;50.50;100693.09;1777210;80;21220;-79
2022/03/24 01:50:59;;;;;;;52.73;25.57;;;;;;;-2.58;50.64;100692.81;1778819;80;21433;-79
2022/03/24 01:54:05;;;;;;;63.55;26.80;;;;;;;-2.60;50.65;100693.83;1780369;80;21238;-79
2022/03/24 01:57:12;;;;;;;54.15;29.05;;;;;;;-2.61;50.73;100695.64;1686105;81;21214;-78
2022/03/24 02:00:20;;;;;;;54.35;28.67;;;;;;;-2.62;50.85;100697.08;1692918;84;21262;-79
2022/03/24 02:03:27;;;;;;;51.58;26.55;;;;;;;-2.64;51.04;100696.27;1688286;84;21253;-79
2022/03/24 02:06:32;;;;;;;54.18;25.10;;;;;;;-2.69;51.03;100692.50;1686408;83;21775;-79
2022/03/24 02:09:38;;;;;;;60.15;26.35;;;;;;;-2.71;51.08;100687.72;1741625;80;21244;-79
2022/03/24 02:12:44;;;;;;;60.50;26.42;;;;;;;-2.75;51.12;100687.48;1702036;84;21251;-78
2022/03/24 02:15:51;;;;;;;58.13;27.62;;;;;;;-2.77;51.16;100684.52;1742237;80;21201;-78
2022/03/24 02:18:59;;;;;;;62.67;28.12;;;;;;;-2.79;51.30;100694.43;1747578;80;21738;-78
2022/03/24 02:22:18;;;;;;;63.23;28.60;;;;;;;-2.83;51.62;100690.56;1674084;84;21304;-78
2022/03/24 02:25:25;;;;;;;67.10;27.82;;;;;;;-2.85;51.93;100684.92;1710474;83;21252;-79
2022/03/24 02:28:32;;;;;;;52.65;25.80;;;;;;;-2.87;52.08;100670.28;1709857;83;21804;-79
2022/03/24 02:31:38;;;;;;;49.27;25.08;;;;;;;-2.88;52.09;100675.22;1708447;83;21219;-79
2022/03/24 02:34:47;;;;;;;47.55;24.45;;;;;;;-2.88;52.11;100669.00;1691033;83;21235;-78
2022/03/24 02:37:52;;;;;;;53.63;24.30;;;;;;;-2.90;52.02;100666.42;1738295;81;21738;-79
2022/03/24 02:40:57;;;;;;;62.53;28.38;;;;;;;-2.90;51.99;100664.22;1696932;83;21794;-79
2022/03/24 02:44:04;;;;;;;45.50;23.42;;;;;;;-2.94;52.21;100674.22;1746568;80;21238;-78
2022/03/24 02:47:12;;;;;;;54.50;23.02;;;;;;;-2.98;52.51;100672.65;1740036;80;21267;-79
2022/03/24 02:50:22;;;;;;;73.40;34.30;;;;;;;-3.01;53.10;100680.86;1694945;83;21239;-79
2022/03/24 02:53:29;;;;;;;66.45;30.82;;;;;;;-2.98;53.43;100669.97;1745457;81;21212;-79
2022/03/24 02:56:34;;;;;;;59.83;32.45;;;;;;;-2.94;53.43;100672.88;1747314;81;21212;-79
2022/03/24 02:59:40;;;;;;;69.03;31.23;;;;;;;-2.93;53.35;100665.23;1747204;81;21240;-79
2022/03/24 03:02:47;;;;;;;78.07;31.00;;;;;;;-2.94;53.29;100663.52;1697629;83;22486;-78
2022/03/24 03:05:54;;;;;;;61.90;28.65;;;;;;;-2.95;53.38;100668.96;1699199;82;21232;-79
2022/03/24 03:09:00;;;;;;;58.02;27.65;;;;;;;-3.00;53.38;100656.30;1701391;83;21506;-78
2022/03/24 03:12:06;;;;;;;55.58;24.80;;;;;;;-3.03;53.38;100651.95;1747526;80;21204;-79
2022/03/24 03:15:13;;;;;;;56.15;26.75;;;;;;;-3.04;53.41;100654.73;1747399;80;21231;-78
2022/03/24 03:18:20;;;;;;;69.30;27.32;;;;;;;-3.05;53.50;100641.82;1748023;81;21212;-78
2022/03/24 03:21:26;;;;;;;54.27;25.85;;;;;;;-3.07;53.53;100645.51;1739404;80;21557;-78
2022/03/24 03:24:32;;;;;;;56.42;27.07;;;;;;;-3.11;53.60;100650.16;1725025;81;21827;-78
2022/03/24 03:27:40;;;;;;;56.18;26.77;;;;;;;-3.15;53.64;100648.61;1738986;82;21212;-79
2022/03/24 03:30:47;;;;;;;54.85;25.88;;;;;;;-3.21;53.61;100638.21;1735233;82;21219;-79
2022/03/24 03:33:51;;;;;;;48.63;23.92;;;;;;;-3.27;53.66;100638.55;1734535;81;21228;-78
2022/03/24 03:37:03;;;;;;;55.65;27.02;;;;;;;-3.31;53.75;100640.98;1736019;80;21201;-78
2022/03/24 03:40:05;;;;;;;61.73;28.60;;;;;;;-3.35;53.84;100637.13;1725810;81;21259;-79
2022/03/24 03:43:11;;;;;;;54.08;28.07;;;;;;;-3.38;54.04;100649.34;1714398;80;21197;-77
2022/03/24 03:46:18;;;;;;;50.28;24.80;;;;;;;-3.39;54.28;100643.60;1735986;81;21763;-78
2022/03/24 03:49:25;;;;;;;65.60;27.90;;;;;;;-3.39;54.38;100646.72;1736508;81;21835;-78
2022/03/24 03:52:33;;;;;;;59.77;25.75;;;;;;;-3.36;54.47;100643.90;1735554;81;21803;-78
2022/03/24 03:55:39;;;;;;;57.33;25.12;;;;;;;-3.34;54.44;100639.31;1734158;82;21228;-78
2022/03/24 03:58:45;;;;;;;56.23;28.38;;;;;;;-3.30;54.34;100633.34;1732951;82;21248;-77
2022/03/24 04:01:52;;;;;;;57.30;28.70;;;;;;;-3.27;54.29;100633.19;1727852;81;21219;-78
2022/03/24 04:04:58;;;;;;;60.12;26.77;;;;;;;-3.27;54.38;100629.18;1718211;81;21238;-77
2022/03/24 04:08:09;;;;;;;57.45;26.85;;;;;;;-3.26;54.54;100630.91;1704027;83;21257;-77
2022/03/24 04:11:14;;;;;;;55.73;25.57;;;;;;;-3.20;54.63;100623.87;1698026;82;21221;-78
2022/03/24 04:14:27;;;;;;;61.73;25.85;;;;;;;-3.05;54.68;100620.41;1857690;76;22201;-75
2022/03/24 04:17:34;;;;;;;63.48;27.15;;;;;;;-3.01;54.62;100616.63;1750386;82;21203;-75
2022/03/24 04:20:41;;;;;;;55.48;26.93;;;;;;;-2.88;54.58;100615.47;1736028;82;21216;-76
2022/03/24 04:23:49;;;;;;;67.67;28.73;;;;;;;-2.75;54.60;100612.99;1749936;82;21721;-81
2022/03/24 04:26:56;;;;;;;55.38;26.80;;;;;;;-2.65;54.44;100616.89;1737093;82;21233;-82
2022/03/24 04:30:01;;;;;;;53.45;27.82;;;;;;;-2.57;54.21;100618.20;1751469;82;21152;-81
2022/03/24 04:33:06;;;;;;;56.95;26.62;;;;;;;-2.47;54.13;100613.19;1735920;82;21766;-76
2022/03/24 04:36:13;;;;;;;69.42;28.40;;;;;;;-2.37;54.24;100614.88;1751285;82;21148;-82
2022/03/24 04:39:20;;;;;;;54.58;27.50;;;;;;;-2.28;54.24;100607.65;1737311;82;21162;-76
2022/03/24 04:42:20;;;;;;;55.70;26.48;;;;;;;-2.17;53.98;100603.01;1750863;82;21184;-81
2022/03/24 04:45:32;;;;;;;59.23;26.52;;;;;;;-2.03;53.83;100603.08;1737312;82;21181;-74
2022/03/24 04:48:38;;;;;;;52.25;25.68;;;;;;;-1.87;53.75;100601.24;1751315;82;21132;-82
2022/03/24 04:51:45;;;;;;;64.20;27.25;;;;;;;-1.69;53.77;100599.78;1737371;82;21244;-77
2022/03/24 04:54:52;;;;;;;54.73;26.62;;;;;;;-1.51;53.67;100601.33;1750007;81;21795;-82
2022/03/24 04:57:59;;;;;;;60.60;28.45;;;;;;;-1.33;53.78;100605.59;1736286;81;21806;-81
2022/03/24 05:01:07;;;;;;;66.28;27.52;;;;;;;-1.16;53.96;100603.22;1751373;82;21758;-82
2022/03/24 05:04:15;;;;;;;62.40;26.45;;;;;;;-0.96;54.00;100601.12;1737491;82;21260;-81
2022/03/24 05:07:21;;;;;;;59.88;28.07;;;;;;;-0.73;53.63;100602.36;1751440;82;21781;-82
2022/03/24 05:10:25;;;;;;;56.85;26.42;;;;;;;-0.51;53.32;100605.41;1737543;82;21166;-77
2022/03/24 05:13:32;;;;;;;64.70;27.30;;;;;;;-0.31;52.85;100596.91;1748594;82;21779;-76
2022/03/24 05:16:38;;;;;;;63.55;29.12;;;;;;;-0.08;52.49;100597.23;1726063;83;21205;-82
2022/03/24 05:19:48;;;;;;;57.58;26.52;;;;;;;0.13;52.09;100599.83;1743562;82;21733;-76
2022/03/24 05:22:53;;;;;;;57.50;24.18;;;;;;;0.37;52.11;100591.06;1725873;83;21209;-76
2022/03/24 05:25:59;;;;;;;76.25;24.15;;;;;;;0.58;52.09;100587.41;1742943;82;21208;-76
2022/03/24 05:29:03;;;;;;;46.50;19.98;;;;;;;0.79;52.11;100586.38;1726742;82;21202;-81
2022/03/24 05:32:09;;;;;;;48.50;21.62;;;;;;;0.99;52.12;100582.69;1742974;82;21766;-76
2022/03/24 05:35:17;;;;;;;58.08;22.93;;;;;;;1.22;52.02;100584.20;1726762;83;21194;-76
2022/03/24 05:38:23;;;;;;;48.20;22.02;;;;;;;1.41;52.01;100572.95;1743017;82;21232;-82
2022/03/24 05:41:28;;;;;;;62.60;24.63;;;;;;;1.63;51.76;100574.47;1726735;83;21189;-76
2022/03/24 05:44:33;;;;;;;52.15;23.20;;;;;;;1.85;51.45;100575.59;1741913;82;21153;-82
2022/03/24 05:47:39;;;;;;;38.13;19.50;;;;;;;2.06;51.08;100575.31;1726768;83;21814;-76
2022/03/24 05:50:48;;;;;;;47.88;19.17;;;;;;;2.26;50.37;100577.39;1743017;82;21180;-78
2022/03/24 05:53:55;;;;;;;40.63;18.10;;;;;;;2.49;49.93;100576.98;1726844;83;21182;-77
2022/03/24 05:57:00;;;;;;;35.98;15.80;;;;;;;2.72;49.20;100577.88;1742946;82;21196;-76
2022/03/24 06:00:06;;;;;;;26.57;13.22;;;;;;;2.97;48.25;100578.67;1726905;82;21728;-76
2022/03/24 06:03:15;;;;;;;29.42;14.28;;;;;;;3.26;47.95;100585.32;1742804;82;21200;-82
2022/03/24 06:06:26;;;;;;;39.40;15.80;;;;;;;3.61;46.09;100580.25;1727022;83;21210;-82
2022/03/24 06:09:29;;;;;;;32.30;15.85;;;;;;;3.89;45.03;100571.22;1742973;82;21200;-76
2022/03/24 06:12:34;;;;;;;30.02;15.23;;;;;;;4.13;44.18;100566.95;1726745;83;21252;-83
2022/03/24 06:15:40;;;;;;;37.93;16.25;;;;;;;4.34;43.66;100564.66;1736849;82;21212;-76
2022/03/24 06:18:48;;;;;;;33.38;15.83;;;;;;;4.54;43.14;100559.39;1771131;81;21691;-77
2022/03/24 06:21:55;;;;;;;29.77;14.58;;;;;;;4.77;42.91;100562.83;1769938;80;21201;-76
2022/03/24 06:24:56;;;;;;;25.90;13.48;;;;;;;4.98;41.93;100557.38;1755518;81;21126;-76
2022/03/24 06:27:55;;;;;;;24.47;12.90;;;;;;;5.18;41.22;100553.79;1739345;82;21183;-81
2022/03/24 06:30:37;;;;;;;30.82;14.93;;;;;;;5.38;40.65;100550.16;1739992;82;21549;-82
2022/03/24 06:33:29;;;;;;;29.27;14.00;;;;;;;5.57;40.02;100548.50;1739688;82;21157;-76
2022/03/24 06:36:34;;;;;;;24.32;12.85;;;;;;;5.74;39.98;100549.67;1739888;82;21230;-76
2022/03/24 06:39:40;;;;;;;23.40;11.80;;;;;;;5.93;38.61;100540.27;1740070;81;21152;-82
2022/03/24 06:42:45;;;;;;;23.95;11.57;;;;;;;6.14;37.36;100531.48;1702808;82;21617;-77
2022/03/24 06:45:51;;;;;;;20.70;11.08;;;;;;;6.32;36.91;100530.77;1746242;81;21172;-83
2022/03/24 06:48:59;;;;;;;29.67;12.75;;;;;;;6.49;36.66;100534.60;1732531;81;21784;-76
2022/03/24 06:52:06;;;;;;;19.45;11.40;;;;;;;6.62;36.30;100529.73;1728839;83;21188;-76
2022/03/24 06:55:14;;;;;;;22.67;11.78;;;;;;;6.75;36.35;100538.95;1747487;81;21742;-76
2022/03/24 06:58:22;;;;;;;20.55;10.78;;;;;;;6.87;36.23;100539.14;1739548;81;21226;-78
2022/03/24 07:01:27;;;;;;;18.92;10.20;;;;;;;6.98;35.80;100538.11;1733983;81;21193;-76
2022/03/24 07:04:33;;;;;;;25.80;12.75;;;;;;;7.08;35.19;100538.42;1770491;81;21170;-83
2022/03/24 07:07:40;;;;;;;22.05;10.68;;;;;;;7.15;35.34;100535.48;1760936;80;21189;-82
2022/03/24 07:10:48;;;;;;;30.32;11.83;;;;;;;7.21;34.91;100525.86;1767237;81;21687;-83
2022/03/24 07:13:55;;;;;;;28.60;10.98;;;;;;;7.26;34.92;100520.81;1762740;81;21758;-83
2022/03/24 07:17:01;;;;;;;29.52;11.93;;;;;;;7.32;34.97;100517.48;1772690;79;21689;-76
2022/03/24 07:20:13;;;;;;;20.37;10.75;;;;;;;7.39;34.83;100517.25;1782077;80;21122;-82
2022/03/24 07:23:20;;;;;;;25.50;9.75;;;;;;;7.48;34.18;100514.14;1768926;80;21773;-76
2022/03/24 07:26:24;;;;;;;19.75;9.90;;;;;;;7.56;34.78;100513.36;1780806;80;21267;-83
2022/03/24 07:29:30;;;;;;;23.35;10.70;;;;;;;7.66;34.31;100508.20;1782125;80;21188;-83
2022/03/24 07:32:35;;;;;;;17.30;9.23;;;;;;;7.77;34.53;100503.06;1780576;80;21984;-83
2022/03/24 07:35:43;;;;;;;17.12;10.25;;;;;;;7.90;34.20;100505.39;1772121;80;21179;-83
2022/03/24 07:38:49;;;;;;;18.77;9.38;;;;;;;8.00;34.45;100498.03;1777644;80;21147;-77
2022/03/24 07:41:55;;;;;;;30.08;10.10;;;;;;;8.09;34.11;100497.10;1769985;80;21191;-77
2022/03/24 07:45:01;;;;;;;19.37;8.83;;;;;;;8.15;33.86;100495.11;1772878;80;21444;-77
2022/03/24 07:48:27;;;;;;;18.10;9.60;;;;;;;8.23;33.63;100492.94;1776216;80;21156;-77
2022/03/24 07:51:39;;;;;;;20.85;10.85;;;;;;;8.29;32.92;100495.06;1736609;82;21225;-77
2022/03/24 07:55:06;;;;;;;26.33;11.53;;;;;;;8.36;33.55;100485.26;1720591;83;21186;-83
2022/03/24 07:58:12;;;;;;;23.92;10.20;;;;;;;8.44;33.71;100494.87;1726354;82;21189;-83
2022/03/24 08:01:22;;;;;;;24.80;11.68;;;;;;;8.52;33.80;100487.28;1739407;80;21204;-83
2022/03/24 08:04:27;;;;;;;17.50;10.10;;;;;;;8.57;33.62;100479.48;1745883;82;21244;-83
2022/03/24 08:07:34;;;;;;;17.20;8.10;;;;;;;8.63;33.71;100469.80;1737931;82;21252;-76
2022/03/24 08:10:44;;;;;;;13.85;6.85;;;;;;;8.72;33.61;100468.84;1729303;82;21213;-83
2022/03/24 08:13:50;;;;;;;14.87;7.12;;;;;;;8.83;32.78;100463.09;1743276;82;21735;-83
2022/03/24 08:16:55;;;;;;;18.40;7.90;;;;;;;8.90;31.49;100462.81;1731895;82;21786;-76
2022/03/24 08:20:01;;;;;;;16.87;8.33;;;;;;;8.95;31.54;100461.81;1735675;82;21205;-83
2022/03/24 08:23:08;;;;;;;15.43;8.00;;;;;;;9.06;31.33;100465.28;1728124;82;21725;-83
2022/03/24 08:26:14;;;;;;;14.93;7.87;;;;;;;9.16;31.12;100464.13;1732756;82;21137;-83
2022/03/24 08:29:20;;;;;;;13.22;7.67;;;;;;;9.23;30.52;100457.52;1724280;82;21156;-83
2022/03/24 08:32:26;;;;;;;13.55;7.78;;;;;;;9.32;31.23;100450.23;1732809;82;21161;-76
2022/03/24 08:35:31;;;;;;;16.57;8.10;;;;;;;9.37;31.53;100441.03;1704762;83;21232;-83
2022/03/24 08:38:36;;;;;;;18.48;8.23;;;;;;;9.43;29.58;100443.09;1733541;82;21753;-83
2022/03/24 08:41:43;;;;;;;13.35;7.65;;;;;;;9.41;29.65;100432.34;1710236;82;21210;-76
2022/03/24 08:44:49;;;;;;;14.87;7.20;;;;;;;9.47;30.14;100430.81;1704661;82;21183;-83
2022/03/24 08:47:54;;;;;;;13.83;7.53;;;;;;;9.54;30.30;100422.80;1737297;81;21179;-77
2022/03/24 08:51:00;;;;;;;24.90;8.30;;;;;;;9.63;29.62;100421.80;1728423;82;21172;-76
2022/03/24 08:54:06;;;;;;;16.27;7.67;;;;;;;9.65;30.22;100413.80;1737827;82;21706;-76
2022/03/24 08:57:11;;;;;;;14.20;7.67;;;;;;;9.71;30.29;100410.90;1738082;82;21211;-83
2022/03/24 09:00:20;;;;;;;13.45;7.85;;;;;;;9.79;30.03;100406.82;1736428;82;21156;-83
2022/03/24 09:03:27;;;;;;;11.18;7.78;;;;;;;9.86;30.12;100403.73;1710064;82;21206;-84
2022/03/24 09:06:34;;;;;;;14.07;7.40;;;;;;;9.89;29.54;100397.95;1718639;83;21750;-76
2022/03/24 09:09:40;;;;;;;15.88;8.03;;;;;;;9.92;29.77;100398.10;1730020;82;21754;-83
2022/03/24 09:12:49;;;;;;;21.93;8.45;;;;;;;9.94;30.11;100391.45;1732417;82;21223;-84
2022/03/24 09:15:54;;;;;;;16.02;8.30;;;;;;;9.97;29.61;100389.77;1734782;82;21765;-76
2022/03/24 09:19:00;;;;;;;17.85;7.50;;;;;;;10.04;29.39;100380.88;1714788;82;21781;-84
2022/03/24 09:22:05;;;;;;;13.32;7.45;;;;;;;10.10;28.95;100377.44;1720593;83;21225;-83
2022/03/24 09:25:10;;;;;;;16.85;8.33;;;;;;;10.11;28.87;100376.41;1742110;81;21777;-83
2022/03/24 09:28:16;;;;;;;15.25;7.75;;;;;;;10.09;28.98;100367.55;1747135;81;21542;-83
2022/03/24 09:31:22;;;;;;;19.40;8.53;;;;;;;10.08;29.25;100357.12;1748046;81;21172;-76
2022/03/24 09:34:27;;;;;;;24.75;7.72;;;;;;;10.10;29.50;100362.41;1743836;81;21255;-76
2022/03/24 09:37:33;;;;;;;17.05;7.42;;;;;;;10.15;29.03;100360.02;1756154;81;21260;-84
2022/03/24 09:40:40;;;;;;;18.10;7.53;;;;;;;10.19;29.17;100353.18;1746671;80;21171;-84
2022/03/24 09:43:47;;;;;;;17.87;7.17;;;;;;;10.26;29.36;100347.41;1744465;81;21164;-83
2022/03/24 09:46:52;;;;;;;19.32;9.03;;;;;;;10.32;28.98;100348.59;1749569;81;21669;-75
2022/03/24 09:49:58;;;;;;;11.03;7.55;;;;;;;10.31;28.88;100349.10;1705043;82;21195;-75
2022/03/24 09:53:06;;;;;;;17.73;9.35;;;;;;;10.29;28.76;100351.14;1742510;81;21713;-83
2022/03/24 09:56:12;;;;;;;18.27;10.25;;;;;;;10.28;28.37;100343.97;1747453;81;21768;-83
2022/03/24 09:59:18;;;;;;;20.43;8.93;;;;;;;10.30;28.05;100343.79;1719426;83;21195;-83
2022/03/24 10:02:24;;;;;;;27.42;9.25;;;;;;;10.25;27.61;100337.47;1743813;81;21278;-84
2022/03/24 10:05:33;;;;;;;22.43;9.53;;;;;;;10.20;28.23;100328.91;1741022;81;22052;-84
2022/03/24 10:08:39;;;;;;;14.83;8.43;;;;;;;10.20;28.46;100324.81;1742431;81;21471;-83
2022/03/24 10:11:46;;;;;;;26.33;13.03;;;;;;;10.21;29.16;100326.55;1744902;81;21203;-83
2022/03/24 10:14:55;;;;;;;19.10;10.93;;;;;;;10.30;28.40;100326.87;1712634;83;21513;-76
2022/03/24 10:18:03;;;;;;;28.27;11.00;;;;;;;10.38;27.49;100324.13;1708097;82;21231;-75
2022/03/24 10:21:11;;;;;;;29.75;11.90;;;;;;;10.37;27.74;100327.05;1746634;81;21252;-85
2022/03/24 10:24:27;;;;;;;20.05;10.55;;;;;;;10.41;28.09;100320.20;1718069;82;21224;-84
2022/03/24 10:27:35;;;;;;;23.55;9.28;;;;;;;10.48;27.80;100317.09;1715970;83;21650;-77
2022/03/24 10:31:02;;;;;;;23.15;9.35;;;;;;;10.48;26.95;100308.88;1733771;82;21157;-77
2022/03/24 10:34:10;;;;;;;21.62;10.10;;;;;;;10.44;27.26;100298.84;1735320;82;21188;-77
2022/03/24 10:37:18;;;;;;;22.22;8.93;;;;;;;10.43;27.36;100302.58;1731493;82;21239;-84
2022/03/24 10:40:24;;;;;;;18.87;9.03;;;;;;;10.47;27.77;100287.52;1714251;83;21172;-77
2022/03/24 10:43:23;;;;;;;16.85;7.65;;;;;;;10.56;26.73;100286.98;1727278;83;21606;-77
2022/03/24 10:46:27;;;;;;;18.95;9.15;;;;;;;10.62;26.63;100279.43;1727113;83;21213;-77
2022/03/24 10:49:30;;;;;;;13.03;7.70;;;;;;;10.64;26.75;100269.18;1727264;83;21245;-81
2022/03/24 10:52:31;;;;;;;17.77;7.92;;;;;;;10.65;26.85;100272.77;1727416;83;21257;-77
2022/03/24 10:55:59;;;;;;;19.23;7.47;;;;;;;10.71;26.53;100268.79;1727414;83;21213;-78
2022/03/24 10:59:09;;;;;;;13.90;7.40;;;;;;;10.77;26.25;100269.11;1697488;84;21862;-84
2022/03/24 11:02:16;;;;;;;16.40;7.95;;;;;;;10.74;25.92;100264.86;1716149;83;21220;-85
2022/03/24 11:05:24;;;;;;;16.70;7.67;;;;;;;10.69;26.48;100258.55;1714744;82;21212;-76
2022/03/24 11:08:30;;;;;;;12.85;6.90;;;;;;;10.68;26.24;100253.24;1715131;83;21195;-84
2022/03/24 11:11:37;;;;;;;13.70;7.20;;;;;;;10.70;25.48;100249.83;1721842;82;21192;-76
2022/03/24 11:14:50;;;;;;;12.65;6.50;;;;;;;10.72;25.97;100242.28;1728994;83;21209;-84
2022/03/24 11:17:57;;;;;;;10.48;5.92;;;;;;;10.75;25.86;100238.68;1729269;83;21209;-76
2022/03/24 11:21:03;;;;;;;23.77;7.00;;;;;;;10.82;24.85;100240.69;1703137;83;21736;-84
2022/03/24 11:24:02;;;;;;;19.48;8.15;;;;;;;10.87;24.34;100238.27;1689266;84;21663;-76
2022/03/24 11:26:55;;;;;;;9.83;5.87;;;;;;;10.89;24.51;100228.86;1703674;84;21886;-76
2022/03/24 11:29:42;;;;;;;10.55;5.50;;;;;;;10.90;24.45;100231.92;1703952;84;21150;-84
2022/03/24 11:32:35;;;;;;;15.40;5.58;;;;;;;10.90;24.88;100223.72;1703764;84;21245;-76
2022/03/24 11:35:43;;;;;;;12.18;5.40;;;;;;;10.94;23.47;100216.84;1704967;83;21227;-84
2022/03/24 11:38:49;;;;;;;9.63;5.30;;;;;;;10.94;23.47;100216.84;1705186;84;21792;-84
2022/03/24 11:42:00;;;;;;;10.23;4.85;;;;;;;10.98;22.31;100208.62;1704897;84;21258;-84
2022/03/24 11:45:20;;;;;;;9.58;5.05;;;;;;;10.99;22.42;100206.20;1705460;84;21211;-84
2022/03/24 11:48:25;;;;;;;12.25;5.25;;;;;;;10.97;22.75;100206.92;1704338;84;21772;-77
2022/03/24 11:51:32;;;;;;;16.20;4.90;;;;;;;11.03;21.63;100199.86;1724732;83;21165;-85
2022/03/24 11:54:46;;;;;;;12.68;4.37;;;;;;;11.02;21.30;100197.32;1727658;83;21149;-77
2022/03/24 11:57:55;;;;;;;9.48;4.50;;;;;;;11.00;21.19;100188.75;1726876;83;21204;-75
2022/03/24 12:01:00;;;;;;;7.53;3.98;;;;;;;11.06;20.91;100187.19;1712537;83;21742;-76
2022/03/24 12:04:14;;;;;;;6.05;3.87;;;;;;;11.07;20.63;100180.67;1722265;83;21165;-84
2022/03/24 12:07:25;;;;;;;8.60;3.15;;;;;;;11.06;19.98;100172.66;1721550;83;21165;-76
2022/03/24 12:10:39;;;;;;;9.08;3.33;;;;;;;11.11;19.55;100175.17;1707351;83;21728;-76
2022/03/24 12:13:45;;;;;;;4.08;3.05;;;;;;;11.15;19.04;100171.05;1697218;83;21723;-76
2022/03/24 12:16:56;;;;;;;8.88;3.37;;;;;;;11.18;18.95;100169.80;1718953;83;21221;-76
2022/03/24 12:20:05;;;;;;;8.48;2.87;;;;;;;11.19;18.38;100165.50;1711367;82;21229;-84
2022/03/24 12:23:10;;;;;;;4.90;2.83;;;;;;;11.23;17.76;100166.84;1703777;84;21209;-84
2022/03/24 12:26:18;;;;;;;10.78;2.50;;;;;;;11.23;17.66;100161.37;1678154;84;21153;-84
2022/03/24 12:29:32;;;;;;;5.65;2.20;;;;;;;11.26;17.84;100171.11;1664334;86;21724;-77
2022/03/24 12:32:38;;;;;;;7.67;3.20;;;;;;;11.27;16.78;100160.48;1663814;86;21277;-84
2022/03/24 12:35:51;;;;;;;5.72;2.67;;;;;;;11.24;16.76;100158.98;1664133;86;21182;-76
2022/03/24 12:38:58;;;;;;;4.80;2.70;;;;;;;11.22;17.26;100151.98;1663949;86;21222;-84
2022/03/24 12:42:20;;;;;;;9.58;3.12;;;;;;;11.19;17.04;100153.70;1663903;84;21217;-76
2022/03/24 12:45:33;;;;;;;17.98;7.80;;;;;;;11.20;15.90;100152.17;1663699;86;21783;-76
2022/03/24 12:48:47;;;;;;;20.40;10.20;;;;;;;11.22;16.42;100154.72;1664267;84;21174;-84
2022/03/24 12:52:11;;;;;;;34.43;15.15;;;;;;;11.20;16.85;100150.81;1665304;86;21205;-76
2022/03/24 12:55:49;;;;;;;12.45;6.05;;;;;;;11.16;16.88;100148.09;1663787;84;21778;-84
2022/03/24 12:59:04;;;;;;;36.77;14.80;;;;;;;11.14;17.23;100151.52;1675910;85;21196;-76
2022/03/24 13:02:11;;;;;;;17.20;6.78;;;;;;;11.15;17.88;100148.26;1676083;85;21192;-76
2022/03/24 13:05:17;;;;;;;28.62;9.28;;;;;;;11.15;18.39;100146.89;1676652;85;21212;-85
2022/03/24 13:08:23;;;;;;;37.50;14.43;;;;;;;11.15;18.71;100145.52;1689221;84;21518;-76
2022/03/24 13:11:28;;;;;;;95.20;36.88;;;;;;;11.10;19.19;100140.59;1666334;84;21277;-75
2022/03/24 13:14:34;;;;;;;101.33;37.40;;;;;;;11.07;19.43;100137.41;1640685;86;21209;-75
2022/03/24 13:17:42;;;;;;;42.93;18.02;;;;;;;11.04;19.67;100147.34;1663984;86;21217;-84
2022/03/24 13:20:54;;;;;;;74.60;28.70;;;;;;;11.00;20.15;100138.64;1669507;84;21174;-84
2022/03/24 13:24:03;;;;;;;101.27;36.23;;;;;;;11.04;20.01;100139.97;1698419;83;21227;-76
2022/03/24 13:27:09;;;;;;;28.42;12.37;;;;;;;11.04;20.08;100139.97;1719545;82;21754;-76
2022/03/24 13:30:19;;;;;;;77.50;28.07;;;;;;;11.07;19.74;100127.83;1734972;82;21150;-77
2022/03/24 13:33:25;;;;;;;96.55;35.17;;;;;;;11.10;19.85;100131.54;1737108;82;21229;-76
2022/03/24 13:36:31;;;;;;;79.67;32.53;;;;;;;11.10;19.84;100141.13;1738450;82;21306;-76
2022/03/24 13:39:36;;;;;;;45.43;16.97;;;;;;;11.09;19.38;100123.00;1710642;84;21172;-83
2022/03/24 13:42:42;;;;;;;52.83;19.80;;;;;;;11.06;19.53;100128.87;1689001;84;21213;-77
2022/03/24 13:45:49;;;;;;;15.35;6.67;;;;;;;11.06;19.74;100124.76;1710855;84;21221;-76
2022/03/24 13:48:58;;;;;;;42.70;16.45;;;;;;;11.01;19.80;100117.09;1685708;85;21205;-76
2022/03/24 13:51:58;;;;;;;17.77;6.37;;;;;;;10.99;19.79;100121.89;1710614;84;21746;-76
2022/03/24 13:55:22;;;;;;;33.50;13.13;;;;;;;10.97;19.75;100118.50;1684693;85;21811;-83
2022/03/24 13:58:28;;;;;;;19.07;7.60;;;;;;;10.94;20.03;100122.44;1709870;84;21350;-76
2022/03/24 14:01:34;;;;;;;57.98;22.52;;;;;;;10.93;19.84;100115.27;1684539;85;21196;-84
2022/03/24 14:04:41;;;;;;;63.23;20.75;;;;;;;10.86;19.94;100117.02;1709710;84;21211;-76
2022/03/24 14:08:08;;;;;;;52.15;15.35;;;;;;;10.82;19.79;100116.20;1709818;84;21193;-76
2022/03/24 14:11:25;;;;;;;45.48;10.90;;;;;;;10.73;20.05;100116.80;1710525;84;21209;-84
2022/03/24 14:14:30;;;;;;;54.55;18.27;;;;;;;10.64;19.95;100117.89;1710392;84;21185;-84
2022/03/24 14:17:37;;;;;;;31.65;10.75;;;;;;;10.55;19.75;100110.77;1671293;84;21212;-76